AKST,Max TemperatureF,Mean TemperatureF,Min TemperatureF,Max Dew PointF,MeanDew PointF,Min DewpointF,Max Humidity, Mean Humidity, Min Humidity, Max Sea Level PressureIn, Mean Sea Level PressureIn, Min Sea Level PressureIn, Max VisibilityMiles, Mean VisibilityMiles, Min VisibilityMiles, Max Wind SpeedMPH, Mean Wind SpeedMPH, Max Gust SpeedMPH,PrecipitationIn, CloudCover, Events, WindDirDegrees
2013-1-1,37,35,33,34,31,28,100,85,75,29.06,28.99,28.84,10,10,2,28,13,36,0.00,6,,249
2013-1-2,39,36,32,37,35,30,100,95,87,29.05,28.81,28.65,10,8,2,20,6,24,0.00,7,,55
2013-1-3,37,35,33,36,34,30,100,94,81,29.41,29.12,28.83,10,9,4,25,14,30,0.00,6,,187
2013-1-4,37,35,33,37,34,30,100,93,81,29.49,29.36,29.18,10,8,1,26,11,36,0.00,6,,153
2013-1-5,39,36,33,37,33,30,100,84,75,29.28,29.21,29.13,10,10,8,24,10,34,0.00,5,,190
2013-1-6,35,34,32,34,32,30,100,91,81,29.12,28.91,28.76,10,7,1,26,15,36,0.00,7,,338
2013-1-7,35,32,30,32,28,27,100,82,70,29.90,29.52,29.13,10,9,1,30,21,37,0.00,6,,306
2013-1-8,39,34,30,37,31,25,100,83,70,30.13,30.06,29.91,10,10,7,26,12,31,0.00,7,,215
2013-1-9,39,37,35,39,37,34,100,95,87,30.03,29.82,29.66,10,8,1,38,21,46,0.00,6,,172
2013-1-10,39,36,33,39,35,32,100,95,87,29.95,29.78,29.54,10,9,3,21,8,24,0.00,6,,93
2013-1-11,41,34,30,41,32,28,100,87,75,30.03,29.86,29.56,10,9,2,17,5,21,0.00,4,,82
2013-1-12,42,40,39,43,41,39,100,98,93,29.55,29.44,29.36,10,4,1,33,19,41,0.00,8,,162
2013-1-13,42,40,39,41,39,37,100,96,87,29.61,29.45,29.25,10,6,2,30,16,46,0.00,8,,124
2013-1-14,39,36,32,39,32,28,100,86,75,30.08,29.80,29.25,10,10,3,23,10,29,0.00,6,,232
2013-1-15,39,36,33,37,36,34,100,97,87,30.20,30.16,30.10,10,9,3,12,3,,0.00,7,,162
2013-1-16,35,30,24,36,24,19,100,83,74,30.19,30.08,29.99,10,10,10,30,14,37,0.00,4,,343
2013-1-17,33,27,21,30,22,18,93,84,74,30.01,29.96,29.87,10,10,10,16,10,20,0.00,3,,10
2013-1-18,37,34,30,36,34,30,100,96,87,29.86,29.69,29.47,10,7,2,18,11,33,0.00,8,,43
2013-1-19,39,38,37,39,37,36,100,96,93,29.47,29.16,28.97,10,6,2,31,13,44,0.00,8,,101
2013-1-20,41,39,37,39,37,32,100,92,81,29.37,29.34,29.23,10,7,3,30,15,38,0.00,8,,124
2013-1-21,39,38,37,37,37,36,100,97,93,29.36,29.30,29.25,10,8,3,16,9,36,0.00,8,,29
2013-1-22,39,36,33,37,35,32,100,95,87,29.40,29.34,29.27,10,10,3,12,5,,0.00,7,,313
2013-1-23,37,35,33,36,34,32,100,96,87,29.27,29.21,29.17,10,9,3,10,2,17,0.00,7,,346
2013-1-24,37,34,30,34,32,28,93,91,81,29.71,29.50,29.27,10,10,10,24,13,24,0.00,5,,340
2013-1-25,33,30,28,28,28,27,100,90,81,29.93,29.84,29.72,10,10,10,16,9,,0.00,5,,315
2013-1-26,32,29,26,30,27,19,100,87,69,30.06,29.99,29.94,10,10,10,14,4,,0.00,7,,336
2013-1-27,28,26,24,27,23,16,100,86,59,30.08,29.96,29.67,10,6,1,20,9,33,0.00,8,,30
2013-1-28,41,34,26,41,34,25,100,97,93,29.66,29.20,28.96,7,3,1,21,15,45,0.00,8,,49
2013-1-29,41,39,37,41,39,37,100,99,93,29.34,29.23,29.02,10,5,1,26,15,31,0.00,8,,151
2013-1-30,39,37,35,39,36,30,100,95,81,29.70,29.46,29.30,10,7,1,16,7,21,0.00,6,,10
2013-1-31,37,36,35,36,34,30,93,89,75,29.72,29.65,29.54,10,10,6,15,8,33,0.00,8,,31